createdAt,value
2023-07-08T00:00:49.641Z,19.53
2023-07-08T00:01:49.955Z,19.53
2023-07-08T00:02:50.126Z,19.55
2023-07-08T00:03:50.347Z,19.55
2023-07-08T00:04:50.515Z,19.60
2023-07-08T00:05:50.734Z,19.66
2023-07-08T00:06:50.918Z,19.71
2023-07-08T00:07:51.115Z,19.74
2023-07-08T00:08:51.322Z,19.75
2023-07-08T00:09:51.502Z,19.78
2023-07-08T00:10:51.720Z,19.74
2023-07-08T00:11:51.920Z,19.75
2023-07-08T00:12:52.116Z,19.75
2023-07-08T00:13:52.373Z,19.75
2023-07-08T00:14:52.569Z,19.74
2023-07-08T00:15:52.780Z,19.78
2023-07-08T00:16:53.065Z,19.78
2023-07-08T00:17:53.207Z,19.81
2023-07-08T00:18:53.392Z,19.84
2023-07-08T00:19:53.598Z,19.85
2023-07-08T00:20:53.808Z,19.89
2023-07-08T00:21:54.030Z,19.87
2023-07-08T00:22:54.207Z,19.89
2023-07-08T00:23:54.424Z,19.84
2023-07-08T00:24:54.624Z,19.82
2023-07-08T00:25:54.851Z,19.84
2023-07-08T00:26:55.054Z,19.87
2023-07-08T00:27:55.262Z,19.87
2023-07-08T00:28:55.496Z,19.87
2023-07-08T00:29:55.699Z,19.85
2023-07-08T00:30:55.938Z,19.82
2023-07-08T00:31:56.132Z,19.79
2023-07-08T00:32:56.380Z,19.77
2023-07-08T00:33:57.485Z,19.75
2023-07-08T00:34:56.854Z,19.74
2023-07-08T00:35:57.183Z,19.77
2023-07-08T00:36:57.367Z,19.78
2023-07-08T00:37:57.697Z,19.77
2023-07-08T00:38:57.901Z,19.75
2023-07-08T00:39:58.211Z,19.70
2023-07-08T00:40:58.674Z,19.71
2023-07-08T00:41:58.618Z,19.64
2023-07-08T00:42:58.822Z,19.66
2023-07-08T00:43:59.023Z,19.63
2023-07-08T00:44:59.206Z,19.60
2023-07-08T00:46:03.157Z,19.59
2023-07-08T00:46:59.895Z,19.55
2023-07-08T00:48:00.077Z,19.49
2023-07-08T00:49:00.268Z,19.45
2023-07-08T00:50:00.592Z,19.42
2023-07-08T00:51:00.992Z,19.39
2023-07-08T00:52:01.072Z,19.38
2023-07-08T00:53:01.270Z,19.32
2023-07-08T00:54:01.487Z,19.27
2023-07-08T00:55:01.665Z,19.24
2023-07-08T00:56:01.986Z,19.22
2023-07-08T00:57:02.216Z,19.19
2023-07-08T00:58:02.414Z,19.12
2023-07-08T00:59:02.607Z,19.09
2023-07-08T01:00:02.826Z,19.05
2023-07-08T01:01:03.033Z,19.01
2023-07-08T01:02:03.412Z,19.01
2023-07-08T01:03:03.496Z,19.00
2023-07-08T01:04:03.725Z,18.96
2023-07-08T01:05:03.920Z,18.92
2023-07-08T01:06:04.143Z,18.89
2023-07-08T01:07:04.376Z,18.88
2023-07-08T01:08:04.576Z,18.89
2023-07-08T01:09:04.756Z,18.86
2023-07-08T01:10:05.080Z,18.83
2023-07-08T01:11:05.598Z,18.82
2023-07-08T01:12:05.516Z,18.79
2023-07-08T01:13:05.713Z,18.78
2023-07-08T01:14:06.124Z,18.78
2023-07-08T01:15:06.244Z,18.76
2023-07-08T01:16:06.520Z,18.73
2023-07-08T01:17:06.716Z,18.71
2023-07-08T01:18:06.951Z,18.73
2023-07-08T01:19:07.150Z,18.76
2023-07-08T01:20:07.353Z,18.76
2023-07-08T01:21:07.608Z,18.76
2023-07-08T01:22:07.778Z,18.78
2023-07-08T01:23:07.961Z,18.76
2023-07-08T01:24:08.276Z,18.78
2023-07-08T01:25:08.476Z,18.79
2023-07-08T01:26:08.799Z,18.81
2023-07-08T01:27:09.018Z,18.83
2023-07-08T01:28:09.243Z,18.88
2023-07-08T01:29:09.415Z,18.86
2023-07-08T01:30:09.715Z,18.85
2023-07-08T01:31:09.949Z,18.82
2023-07-08T01:32:10.190Z,18.78
2023-07-08T01:33:10.376Z,18.76
2023-07-08T01:34:10.591Z,18.74
2023-07-08T01:35:10.785Z,18.73
2023-07-08T01:36:11.118Z,18.74
2023-07-08T01:37:11.305Z,18.78
2023-07-08T01:38:11.519Z,18.76
2023-07-08T01:39:11.706Z,18.79
2023-07-08T01:40:11.904Z,18.76
2023-07-08T01:41:12.131Z,18.73
2023-07-08T01:42:12.335Z,18.78
2023-07-08T01:43:12.537Z,18.76
2023-07-08T01:44:12.758Z,18.74
2023-07-08T01:45:12.956Z,18.73
2023-07-08T01:46:13.208Z,18.71
2023-07-08T01:47:13.399Z,18.70
2023-07-08T01:48:13.613Z,18.68
2023-07-08T01:49:13.799Z,18.68
2023-07-08T01:50:14.110Z,18.68
2023-07-08T01:51:14.318Z,18.68
2023-07-08T01:52:14.503Z,18.68
2023-07-08T01:53:14.690Z,18.64
2023-07-08T01:54:15.007Z,18.66
2023-07-08T01:55:15.204Z,18.66
2023-07-08T01:56:15.525Z,18.64
2023-07-08T01:57:15.713Z,18.63
2023-07-08T01:58:15.924Z,18.63
2023-07-08T01:59:16.117Z,18.61
2023-07-08T02:00:16.415Z,18.58
2023-07-08T02:01:16.771Z,18.58
2023-07-08T02:02:16.951Z,18.55
2023-07-08T02:03:17.190Z,18.57
2023-07-08T02:04:17.420Z,18.52
2023-07-08T02:05:17.776Z,18.52
2023-07-08T02:06:17.857Z,18.49
2023-07-08T02:07:18.088Z,18.48
2023-07-08T02:08:18.337Z,18.45
2023-07-08T02:09:18.539Z,18.41
2023-07-08T02:10:18.759Z,18.39
2023-07-08T02:11:18.987Z,18.39
2023-07-08T02:12:19.191Z,18.34
2023-07-08T02:13:19.400Z,18.30
2023-07-08T02:14:19.716Z,18.28
2023-07-08T02:15:19.891Z,18.27
2023-07-08T02:16:20.361Z,18.26
2023-07-08T02:17:20.454Z,18.26
2023-07-08T02:18:20.676Z,18.21
2023-07-08T02:19:20.846Z,18.18
2023-07-08T02:20:21.158Z,18.15
2023-07-08T02:21:21.399Z,18.21
2023-07-08T02:22:21.611Z,18.21
2023-07-08T02:23:21.802Z,18.16
2023-07-08T02:24:22.132Z,18.13
2023-07-08T02:25:22.354Z,18.11
2023-07-08T02:26:22.584Z,18.09
2023-07-08T02:27:22.832Z,18.06
2023-07-08T02:28:30.347Z,18.05
2023-07-08T02:29:23.396Z,18.08
2023-07-08T02:30:23.707Z,18.13
2023-07-08T02:31:23.937Z,18.21
2023-07-08T02:32:24.228Z,18.27
2023-07-08T02:33:24.418Z,18.30
2023-07-08T02:34:24.727Z,18.33
2023-07-08T02:35:24.917Z,18.41
2023-07-08T02:36:25.241Z,18.41
2023-07-08T02:37:25.441Z,18.37
2023-07-08T02:38:25.748Z,18.36
2023-07-08T02:39:25.938Z,18.33
2023-07-08T02:40:26.283Z,18.31
2023-07-08T02:41:26.486Z,18.28
2023-07-08T02:42:26.709Z,18.30
2023-07-08T02:43:26.908Z,18.27
2023-07-08T02:44:27.218Z,18.26
2023-07-08T02:45:27.478Z,18.30
2023-07-08T02:46:27.683Z,18.27
2023-07-08T02:47:27.900Z,18.28
2023-07-08T02:48:28.208Z,18.26
2023-07-08T02:49:28.395Z,18.28
2023-07-08T02:50:28.593Z,18.33
2023-07-08T02:51:28.916Z,18.34
2023-07-08T02:52:29.071Z,18.33
2023-07-08T02:53:29.294Z,18.34
2023-07-08T02:54:29.472Z,18.36
2023-07-08T02:55:29.671Z,18.36
2023-07-08T02:56:30.011Z,18.37
2023-07-08T02:57:30.194Z,18.37
2023-07-08T02:58:30.525Z,18.36
2023-07-08T02:59:30.723Z,18.36
2023-07-08T03:00:30.936Z,18.34
2023-07-08T03:01:31.170Z,18.31
2023-07-08T03:02:31.371Z,18.31
2023-07-08T03:03:31.609Z,18.30
2023-07-08T03:04:31.830Z,18.33
2023-07-08T03:05:32.112Z,18.34
2023-07-08T03:06:32.289Z,18.39
2023-07-08T03:07:32.481Z,18.42
2023-07-08T03:08:32.676Z,18.45
2023-07-08T03:09:33.030Z,18.43
2023-07-08T03:10:33.232Z,18.45
2023-07-08T03:11:33.569Z,18.46
2023-07-08T03:12:33.783Z,18.49
2023-07-08T03:13:34.033Z,18.49
2023-07-08T03:14:34.210Z,18.51
2023-07-08T03:15:34.415Z,18.48
2023-07-08T03:16:34.626Z,18.48
2023-07-08T03:17:34.854Z,18.45
2023-07-08T03:18:35.022Z,18.43
2023-07-08T03:19:35.342Z,18.37
2023-07-08T03:20:35.532Z,18.39
2023-07-08T03:21:35.868Z,18.36
2023-07-08T03:22:36.061Z,18.33
2023-07-08T03:23:36.388Z,18.28
2023-07-08T03:24:36.658Z,18.28
2023-07-08T03:25:36.982Z,18.26
2023-07-08T03:26:37.277Z,18.21
2023-07-08T03:27:37.493Z,18.18
2023-07-08T03:28:37.671Z,18.13
2023-07-08T03:29:37.983Z,18.12
2023-07-08T03:30:38.203Z,18.11
2023-07-08T03:31:38.463Z,18.15
2023-07-08T03:32:38.673Z,18.15
2023-07-08T03:33:38.822Z,18.12
2023-07-08T03:34:39.018Z,18.12
2023-07-08T03:35:39.316Z,18.15
2023-07-08T03:36:39.521Z,18.12
2023-07-08T03:37:39.738Z,18.12
2023-07-08T03:38:39.916Z,18.08
2023-07-08T03:39:40.246Z,18.08
2023-07-08T03:40:40.431Z,18.08
2023-07-08T03:41:40.839Z,18.08
2023-07-08T03:42:41.001Z,18.09
2023-07-08T03:43:41.326Z,18.09
2023-07-08T03:44:41.539Z,18.06
2023-07-08T03:45:41.742Z,18.08
2023-07-08T03:46:42.009Z,18.06
2023-07-08T03:47:42.293Z,18.08
2023-07-08T03:48:42.632Z,18.09
2023-07-08T03:49:42.770Z,18.11
2023-07-08T03:50:42.980Z,18.11
2023-07-08T03:51:43.210Z,18.11
2023-07-08T03:52:43.414Z,18.12
2023-07-08T03:53:43.626Z,18.15
2023-07-08T03:54:43.817Z,18.16
2023-07-08T03:55:44.144Z,18.23
2023-07-08T03:56:44.345Z,18.30
2023-07-08T03:57:44.557Z,18.34
2023-07-08T03:58:44.757Z,18.37
2023-07-08T03:59:44.966Z,18.45
2023-07-08T04:00:45.161Z,18.49
2023-07-08T04:01:45.415Z,18.52
2023-07-08T04:02:45.608Z,18.53
2023-07-08T04:03:45.898Z,18.55
2023-07-08T04:04:46.068Z,18.58
2023-07-08T04:05:46.384Z,18.61
2023-07-08T04:06:46.714Z,18.64
2023-07-08T04:07:46.797Z,18.68
2023-07-08T04:08:46.990Z,18.79
2023-07-08T04:09:47.200Z,18.88
2023-07-08T04:10:47.381Z,18.97
2023-07-08T04:11:47.697Z,19.04
2023-07-08T04:12:47.889Z,19.08
2023-07-08T04:13:48.311Z,19.15
2023-07-08T04:14:48.403Z,19.20
2023-07-08T04:15:48.597Z,19.22
2023-07-08T04:16:48.863Z,19.20
2023-07-08T04:17:49.072Z,19.22
2023-07-08T04:18:49.256Z,19.23
2023-07-08T04:19:49.440Z,19.23
2023-07-08T04:21:49.982Z,19.24
2023-07-08T04:22:50.182Z,19.26
2023-07-08T04:23:50.381Z,19.29
2023-07-08T04:24:50.577Z,19.32
2023-07-08T04:25:50.877Z,19.41
2023-07-08T04:26:51.099Z,19.47
2023-07-08T04:27:51.315Z,19.56
2023-07-08T04:28:51.607Z,19.63
2023-07-08T04:29:52.790Z,19.64
2023-07-08T04:30:52.157Z,19.70
2023-07-08T04:31:52.328Z,19.74
2023-07-08T04:32:52.616Z,19.75
2023-07-08T04:33:52.719Z,19.79
2023-07-08T04:34:52.911Z,19.87
2023-07-08T04:35:53.107Z,19.92
2023-07-08T04:36:53.325Z,19.97
2023-07-08T04:37:53.544Z,20.03
2023-07-08T04:38:53.717Z,20.10
2023-07-08T04:39:54.030Z,20.15
2023-07-08T04:40:54.221Z,20.19
2023-07-08T04:41:54.565Z,20.22
2023-07-08T04:42:54.747Z,20.26
2023-07-08T04:43:54.979Z,20.29
2023-07-08T04:44:55.201Z,20.32
2023-07-08T04:45:55.377Z,20.32
2023-07-08T04:46:55.638Z,20.34
2023-07-08T04:47:55.806Z,20.36
2023-07-08T04:48:56.014Z,20.37
2023-07-08T04:49:56.308Z,20.42
2023-07-08T04:50:56.498Z,20.48
2023-07-08T04:51:56.746Z,20.50
2023-07-08T04:52:56.905Z,20.52
2023-07-08T04:53:57.212Z,20.56
2023-07-08T04:54:57.400Z,20.59
2023-07-08T04:55:57.600Z,20.63
2023-07-08T04:56:57.759Z,20.67
2023-07-08T04:57:57.942Z,20.70
2023-07-08T04:58:58.222Z,20.74
2023-07-08T04:59:58.404Z,20.75
2023-07-08T05:00:58.731Z,20.78
2023-07-08T05:01:58.929Z,20.83
2023-07-08T05:02:59.105Z,20.83
2023-07-08T05:03:59.298Z,20.88
2023-07-08T05:04:59.463Z,20.89
2023-07-08T05:05:59.654Z,20.89
2023-07-08T05:06:59.834Z,20.90
2023-07-08T05:08:00.031Z,20.95
2023-07-08T05:09:01.163Z,21.00
2023-07-08T05:10:00.457Z,20.98
2023-07-08T05:11:01.012Z,21.01
2023-07-08T05:12:00.858Z,21.04
2023-07-08T05:13:01.051Z,21.05
2023-07-08T05:14:01.280Z,21.10
2023-07-08T05:15:01.438Z,21.13
2023-07-08T05:16:01.640Z,21.15
2023-07-08T05:17:01.787Z,21.19
2023-07-08T05:18:02.021Z,21.22
2023-07-08T05:19:02.205Z,21.28
2023-07-08T05:20:02.376Z,21.32
2023-07-08T05:21:02.580Z,21.35
2023-07-08T05:22:02.844Z,21.40
2023-07-08T05:23:03.012Z,21.44
2023-07-08T05:24:03.334Z,21.47
2023-07-08T05:25:03.584Z,21.53
2023-07-08T05:26:03.894Z,21.58
2023-07-08T05:27:04.056Z,21.62
2023-07-08T05:28:04.365Z,21.62
2023-07-08T05:29:04.550Z,21.65
2023-07-08T05:30:04.759Z,21.70
2023-07-08T05:31:04.944Z,21.75
2023-07-08T05:32:05.165Z,21.80
2023-07-08T05:33:05.384Z,21.83
2023-07-08T05:34:05.539Z,21.89
2023-07-08T05:36:05.976Z,21.92
2023-07-08T05:37:06.146Z,22.00
2023-07-08T05:38:06.448Z,22.06
2023-07-08T05:39:06.624Z,22.10
2023-07-08T05:40:06.958Z,22.18
2023-07-08T05:41:07.139Z,22.21
2023-07-08T05:42:07.309Z,22.25
2023-07-08T05:43:07.481Z,22.28
2023-07-08T05:44:07.748Z,22.33
2023-07-08T05:45:07.988Z,22.34
2023-07-08T05:46:12.872Z,22.40
2023-07-08T05:47:08.421Z,22.41
2023-07-08T05:48:08.754Z,22.44
2023-07-08T05:49:08.866Z,22.51
2023-07-08T05:50:09.174Z,22.55
2023-07-08T05:51:09.358Z,22.58
2023-07-08T05:52:09.553Z,22.59
2023-07-08T05:53:09.711Z,22.63
2023-07-08T05:54:10.019Z,22.71
2023-07-08T05:55:10.194Z,22.74
2023-07-08T05:56:10.367Z,22.77
2023-07-08T05:57:10.577Z,22.83
2023-07-08T05:58:22.073Z,22.89
2023-07-08T05:59:12.095Z,22.95
2023-07-08T06:00:11.284Z,23.02
2023-07-08T06:01:11.489Z,23.10
2023-07-08T06:02:11.732Z,23.18
2023-07-08T06:03:11.926Z,23.23
2023-07-08T06:04:12.181Z,23.28
2023-07-08T06:05:12.267Z,23.36
2023-07-08T06:06:12.552Z,23.40
2023-07-08T06:07:12.720Z,23.42
2023-07-08T06:08:12.900Z,23.49
2023-07-08T06:09:13.058Z,23.56
2023-07-08T06:10:13.221Z,23.58
2023-07-08T06:11:13.379Z,23.67
2023-07-08T06:12:13.555Z,23.81
2023-07-08T06:13:13.715Z,23.89
2023-07-08T06:14:13.912Z,24.00
2023-07-08T06:15:14.037Z,24.11
2023-07-08T06:16:18.019Z,24.16
2023-07-08T06:17:15.652Z,24.24
2023-07-08T06:18:14.743Z,24.28
2023-07-08T06:19:14.893Z,24.34
2023-07-08T06:20:15.069Z,24.40
2023-07-08T06:21:15.230Z,24.50
2023-07-08T06:23:15.606Z,24.55
2023-07-08T06:24:15.784Z,24.59
2023-07-08T06:25:15.938Z,24.71
2023-07-08T06:26:16.211Z,24.79
2023-07-08T06:27:16.378Z,24.92
2023-07-08T06:28:16.658Z,25.03
2023-07-08T06:29:16.801Z,25.14
2023-07-08T06:30:16.960Z,25.18
2023-07-08T06:31:17.168Z,25.26
2023-07-08T06:32:17.258Z,25.36
2023-07-08T06:33:17.421Z,25.37
2023-07-08T06:34:17.569Z,25.44
2023-07-08T06:35:17.736Z,25.59
2023-07-08T06:36:17.878Z,25.70
2023-07-08T06:37:18.023Z,25.77
2023-07-08T06:38:18.196Z,25.83
2023-07-08T06:39:18.337Z,25.89
2023-07-08T06:40:18.766Z,25.96
2023-07-08T06:41:18.801Z,26.04
2023-07-08T06:42:19.042Z,26.24
2023-07-08T06:43:19.188Z,26.29
2023-07-08T06:44:19.351Z,26.36
2023-07-08T06:45:19.510Z,26.51
2023-07-08T06:46:19.664Z,26.53
2023-07-08T06:47:19.797Z,26.74
2023-07-08T06:48:20.078Z,26.86
2023-07-08T06:49:20.218Z,26.89
2023-07-08T06:50:20.392Z,26.96
2023-07-08T06:51:20.527Z,27.08
2023-07-08T06:52:20.656Z,27.22
2023-07-08T06:53:20.805Z,27.33
2023-07-08T06:54:20.955Z,27.40
2023-07-08T06:55:21.072Z,27.52
2023-07-08T06:56:21.352Z,27.57
2023-07-08T06:57:21.476Z,27.72
2023-07-08T06:58:21.732Z,27.97
2023-07-08T06:59:21.871Z,28.27
2023-07-08T07:00:22.006Z,28.43
2023-07-08T07:01:22.174Z,28.53
2023-07-08T07:02:22.332Z,28.47
2023-07-08T07:03:22.415Z,28.59
2023-07-08T07:04:22.540Z,28.67
2023-07-08T07:05:23.786Z,28.68
2023-07-08T07:06:22.861Z,28.65
2023-07-08T07:07:22.982Z,28.71
2023-07-08T07:08:23.104Z,28.78
2023-07-08T07:09:23.259Z,28.89
2023-07-08T07:10:23.363Z,29.09
2023-07-08T07:11:23.473Z,29.07
2023-07-08T07:12:23.629Z,29.12
2023-07-08T07:13:23.789Z,29.09
2023-07-08T07:15:24.011Z,29.46
2023-07-08T07:16:24.182Z,29.49
2023-07-08T07:17:24.373Z,29.50
2023-07-08T07:18:24.420Z,29.50
2023-07-08T07:19:24.535Z,29.44
2023-07-08T07:20:24.768Z,29.68
2023-07-08T07:21:24.881Z,29.98
2023-07-08T07:22:25.010Z,30.16
2023-07-08T07:23:25.121Z,30.39
2023-07-08T07:24:25.225Z,30.73
2023-07-08T07:25:25.349Z,30.98
2023-07-08T07:26:25.441Z,31.28
2023-07-08T07:27:25.569Z,31.11
2023-07-08T07:28:25.691Z,31.18
2023-07-08T07:29:25.811Z,31.44
2023-07-08T07:30:26.010Z,31.25
2023-07-08T07:31:26.157Z,31.22
2023-07-08T07:32:26.254Z,31.17
2023-07-08T07:33:26.336Z,31.10
2023-07-08T07:34:26.437Z,30.96
2023-07-08T07:35:26.537Z,31.04
2023-07-08T07:36:26.633Z,31.10
2023-07-08T07:37:26.758Z,31.13
2023-07-08T07:38:26.857Z,31.20
2023-07-08T07:39:26.945Z,31.36
2023-07-08T07:40:27.045Z,31.41
2023-07-08T07:41:27.153Z,31.67
2023-07-08T07:42:27.251Z,31.48
2023-07-08T07:43:27.362Z,31.60
2023-07-08T07:44:27.450Z,31.37
2023-07-08T07:45:27.547Z,31.50
2023-07-08T07:46:27.683Z,31.62
2023-07-08T07:47:30.331Z,31.67
2023-07-08T07:48:27.855Z,31.69
2023-07-08T07:49:27.959Z,31.79
2023-07-08T07:50:28.057Z,31.98
2023-07-08T07:51:28.141Z,32.15
2023-07-08T07:52:28.238Z,32.11
2023-07-08T07:53:28.351Z,32.00
2023-07-08T07:54:28.444Z,32.15
2023-07-08T07:55:28.546Z,32.27
2023-07-08T07:56:28.612Z,32.29
2023-07-08T07:57:28.731Z,32.42
2023-07-08T07:58:28.826Z,32.73
2023-07-08T07:59:28.907Z,33.01
2023-07-08T08:00:28.972Z,33.09
2023-07-08T08:01:29.075Z,33.01
2023-07-08T08:02:29.150Z,32.98
2023-07-08T08:03:29.276Z,33.20
2023-07-08T08:04:29.347Z,32.73
2023-07-08T08:05:29.553Z,32.71
2023-07-08T08:06:29.592Z,32.85
2023-07-08T08:07:29.682Z,32.73
2023-07-08T08:08:29.770Z,32.97
2023-07-08T08:09:29.875Z,32.78
2023-07-08T08:10:29.958Z,32.61
2023-07-08T08:11:30.066Z,32.71
2023-07-08T08:12:37.599Z,32.46
2023-07-08T08:13:31.248Z,32.39
2023-07-08T08:14:30.308Z,32.35
2023-07-08T08:15:30.365Z,32.48
2023-07-08T08:16:30.449Z,32.76
2023-07-08T08:17:30.522Z,33.00
2023-07-08T08:18:30.569Z,33.17
2023-07-08T08:19:30.659Z,33.17
2023-07-08T08:20:30.726Z,33.54
2023-07-08T08:21:30.796Z,33.53
2023-07-08T08:22:30.914Z,33.48
2023-07-08T08:23:30.993Z,33.65
2023-07-08T08:24:31.048Z,33.36
2023-07-08T08:25:31.107Z,33.48
2023-07-08T08:26:31.163Z,33.08
2023-07-08T08:27:31.236Z,33.03
2023-07-08T08:28:31.284Z,33.00
2023-07-08T08:29:31.347Z,33.19
2023-07-08T08:30:31.490Z,32.90
2023-07-08T08:31:31.470Z,32.90
2023-07-08T08:32:31.563Z,33.05
2023-07-08T08:33:31.581Z,33.28
2023-07-08T08:34:31.627Z,33.00
2023-07-08T08:35:31.694Z,32.85
2023-07-08T08:36:31.749Z,32.66
2023-07-08T08:37:31.817Z,32.34
2023-07-08T08:38:31.894Z,32.64
2023-07-08T08:39:31.940Z,33.15
2023-07-08T08:40:32.035Z,33.33
2023-07-08T08:41:32.067Z,33.17
2023-07-08T08:42:32.117Z,32.79
2023-07-08T08:43:32.168Z,32.68
2023-07-08T08:44:32.222Z,32.88
2023-07-08T08:45:32.278Z,33.03
2023-07-08T08:46:32.355Z,33.05
2023-07-08T08:47:32.434Z,33.16
2023-07-08T08:48:32.453Z,33.23
2023-07-08T08:49:32.520Z,33.38
2023-07-08T08:50:32.569Z,33.58
2023-07-08T08:51:32.610Z,33.69
2023-07-08T08:52:32.673Z,33.77
2023-07-08T08:53:32.713Z,33.89
2023-07-08T08:54:32.747Z,33.60
2023-07-08T08:55:32.794Z,33.54
2023-07-08T08:56:32.826Z,33.63
2023-07-08T08:57:32.874Z,33.66
2023-07-08T08:58:32.917Z,33.66
2023-07-08T08:59:32.949Z,33.77
2023-07-08T09:00:33.024Z,33.84
2023-07-08T09:01:33.881Z,33.95
2023-07-08T09:02:33.145Z,34.11
2023-07-08T09:03:33.178Z,34.03
2023-07-08T09:04:33.185Z,34.07
2023-07-08T09:05:33.230Z,34.07
2023-07-08T09:06:33.249Z,34.11
2023-07-08T09:07:33.290Z,33.76
2023-07-08T09:08:33.341Z,33.85
2023-07-08T09:09:33.401Z,33.45
2023-07-08T09:10:33.422Z,33.36
2023-07-08T09:11:33.456Z,33.42
2023-07-08T09:12:33.560Z,33.67
2023-07-08T09:13:33.663Z,33.97
2023-07-08T09:14:33.685Z,34.02
2023-07-08T09:15:33.821Z,34.21
2023-07-08T09:16:33.977Z,33.65
2023-07-08T09:17:37.122Z,33.13
2023-07-08T09:18:33.871Z,32.71
2023-07-08T09:19:33.940Z,32.66
2023-07-08T09:20:33.957Z,32.91
2023-07-08T09:21:33.978Z,32.93
2023-07-08T09:22:34.024Z,32.94
2023-07-08T09:23:34.072Z,32.79
2023-07-08T09:24:34.096Z,32.98
2023-07-08T09:25:34.094Z,33.32
2023-07-08T09:26:34.116Z,33.63
2023-07-08T09:27:34.147Z,33.82
2023-07-08T09:28:34.153Z,34.06
2023-07-08T09:29:34.176Z,34.25
2023-07-08T09:30:34.184Z,34.21
2023-07-08T09:31:34.250Z,33.87
2023-07-08T09:32:34.258Z,33.79
2023-07-08T09:33:34.505Z,33.63
2023-07-08T09:34:34.389Z,33.61
2023-07-08T09:35:34.425Z,33.73
2023-07-08T09:36:34.428Z,33.89
2023-07-08T09:37:34.516Z,33.69
2023-07-08T09:38:34.439Z,33.82
2023-07-08T09:39:34.454Z,33.91
2023-07-08T09:40:34.478Z,34.06
2023-07-08T09:41:34.515Z,34.16
2023-07-08T09:42:34.526Z,34.11
2023-07-08T09:43:34.540Z,34.28
2023-07-08T09:44:34.551Z,34.53
2023-07-08T09:45:34.563Z,34.82
2023-07-08T09:46:34.618Z,34.88
2023-07-08T09:47:34.782Z,35.01
2023-07-08T09:48:34.675Z,34.56
2023-07-08T09:49:34.710Z,34.51
2023-07-08T09:50:34.717Z,34.78
2023-07-08T09:51:34.722Z,34.98
2023-07-08T09:52:34.766Z,35.01
2023-07-08T09:53:34.769Z,34.97
2023-07-08T09:54:34.756Z,35.08
2023-07-08T09:55:34.759Z,35.01
2023-07-08T09:56:34.746Z,35.15
2023-07-08T09:57:34.773Z,35.25
2023-07-08T09:58:34.769Z,35.10
2023-07-08T09:59:34.750Z,35.16
2023-07-08T10:00:34.744Z,35.30
2023-07-08T10:01:34.736Z,35.57
2023-07-08T10:02:34.819Z,35.96
2023-07-08T10:03:34.831Z,36.18
2023-07-08T10:04:34.920Z,36.17
2023-07-08T10:05:34.881Z,35.76
2023-07-08T10:06:34.889Z,35.38
2023-07-08T10:07:34.867Z,35.34
2023-07-08T10:08:34.834Z,35.38
2023-07-08T10:09:34.816Z,35.69
2023-07-08T10:10:34.790Z,35.60
2023-07-08T10:11:34.784Z,35.42
2023-07-08T10:12:34.768Z,35.22
2023-07-08T10:13:34.777Z,35.32
2023-07-08T10:14:34.780Z,35.34
2023-07-08T10:15:34.761Z,35.04
2023-07-08T10:16:34.847Z,34.76
2023-07-08T10:17:34.772Z,34.65
2023-07-08T10:18:34.747Z,34.51
2023-07-08T10:19:34.781Z,34.29
2023-07-08T10:20:34.743Z,34.18
2023-07-08T10:21:34.738Z,34.04
2023-07-08T10:22:34.765Z,34.00
2023-07-08T10:23:34.761Z,33.97
2023-07-08T10:24:34.747Z,34.13
2023-07-08T10:25:34.762Z,34.26
2023-07-08T10:26:34.736Z,34.29
2023-07-08T10:27:34.766Z,34.33
2023-07-08T10:28:34.737Z,34.66
2023-07-08T10:29:34.771Z,34.93
2023-07-08T10:30:34.756Z,35.15
2023-07-08T10:31:34.810Z,35.44
2023-07-08T10:32:34.783Z,35.64
2023-07-08T10:33:34.760Z,35.94
2023-07-08T10:34:34.759Z,36.18
2023-07-08T10:35:36.359Z,36.35
2023-07-08T10:36:34.701Z,36.59
2023-07-08T10:37:34.708Z,36.88
2023-07-08T10:38:34.728Z,37.07
2023-07-08T10:39:34.713Z,36.76
2023-07-08T10:40:34.738Z,36.91
2023-07-08T10:41:34.762Z,36.82
2023-07-08T10:42:34.803Z,36.16
2023-07-08T10:43:34.801Z,36.09
2023-07-08T10:44:34.783Z,35.98
2023-07-08T10:45:34.796Z,36.26
2023-07-08T10:46:34.783Z,36.39
2023-07-08T10:47:34.778Z,36.59
2023-07-08T10:48:34.765Z,36.35
2023-07-08T10:49:34.752Z,36.44
2023-07-08T10:50:34.733Z,36.72
2023-07-08T10:51:34.743Z,36.38
2023-07-08T10:52:34.759Z,35.86
2023-07-08T10:53:34.760Z,35.71
2023-07-08T10:54:34.753Z,35.88
2023-07-08T10:55:34.765Z,36.03
2023-07-08T10:56:34.752Z,36.45
2023-07-08T10:57:34.752Z,36.72
2023-07-08T10:58:34.742Z,37.04
2023-07-08T10:59:34.729Z,37.10
2023-07-08T11:00:34.734Z,37.21
2023-07-08T11:01:34.815Z,37.47
2023-07-08T11:02:34.795Z,37.21
2023-07-08T11:03:34.816Z,36.88
2023-07-08T11:04:34.776Z,36.69
2023-07-08T11:05:34.771Z,37.00
2023-07-08T11:06:34.754Z,37.44
2023-07-08T11:07:34.761Z,37.82
2023-07-08T11:08:34.765Z,37.41
2023-07-08T11:09:34.770Z,37.26
2023-07-08T11:10:36.601Z,37.43
2023-07-08T11:11:34.792Z,37.28
2023-07-08T11:12:34.819Z,37.31
2023-07-08T11:13:34.854Z,37.50
2023-07-08T11:14:34.849Z,37.72
2023-07-08T11:15:34.842Z,38.00
2023-07-08T11:16:36.859Z,38.16
2023-07-08T11:17:34.962Z,38.38
2023-07-08T11:18:34.939Z,38.41
2023-07-08T11:19:34.948Z,38.53
2023-07-08T11:20:34.958Z,38.53
2023-07-08T11:21:35.033Z,38.36
2023-07-08T11:22:35.040Z,38.46
2023-07-08T11:23:35.102Z,38.72
2023-07-08T11:24:35.115Z,38.77
2023-07-08T11:25:35.118Z,38.76
2023-07-08T11:26:35.168Z,38.96
2023-07-08T11:27:35.139Z,38.75
2023-07-08T11:28:35.153Z,38.82
2023-07-08T11:29:35.159Z,38.95
2023-07-08T11:30:35.164Z,38.75
2023-07-08T11:31:35.345Z,38.47
2023-07-08T11:32:35.353Z,38.36
2023-07-08T11:33:36.285Z,38.01
2023-07-08T11:34:35.329Z,38.19
2023-07-08T11:35:35.349Z,38.09
2023-07-08T11:36:35.384Z,38.23
2023-07-08T11:37:35.426Z,38.51
2023-07-08T11:38:35.475Z,38.63
2023-07-08T11:39:35.481Z,38.54
2023-07-08T11:40:35.455Z,38.56
2023-07-08T11:41:35.492Z,38.69
2023-07-08T11:42:35.520Z,38.91
2023-07-08T11:43:35.631Z,39.03
2023-07-08T11:44:37.785Z,39.20
2023-07-08T11:45:35.537Z,39.34
2023-07-08T11:46:35.563Z,39.56
2023-07-08T11:47:35.635Z,39.91
2023-07-08T11:48:35.698Z,40.36
2023-07-08T11:49:35.702Z,40.46
2023-07-08T11:50:35.713Z,40.54
2023-07-08T11:51:35.731Z,40.24
2023-07-08T11:52:35.757Z,40.42
2023-07-08T11:53:35.893Z,40.52
2023-07-08T11:54:35.775Z,40.17
2023-07-08T11:55:35.790Z,40.13
2023-07-08T11:56:35.799Z,40.28
2023-07-08T11:57:35.823Z,40.32
2023-07-08T11:58:35.844Z,40.08
2023-07-08T11:59:35.891Z,39.91
2023-07-08T12:00:35.914Z,39.54
2023-07-08T12:01:36.017Z,39.67
2023-07-08T12:02:35.950Z,39.89
2023-07-08T12:03:35.972Z,40.29
2023-07-08T12:04:35.988Z,40.70
2023-07-08T12:05:35.998Z,41.20
2023-07-08T12:06:36.026Z,41.27
2023-07-08T12:07:36.066Z,41.05
2023-07-08T12:08:36.059Z,40.52
2023-07-08T12:09:36.077Z,40.19
2023-07-08T12:10:36.128Z,40.02
2023-07-08T12:11:36.204Z,40.07
2023-07-08T12:12:36.236Z,40.05
2023-07-08T12:13:36.276Z,40.13
2023-07-08T12:14:36.289Z,40.29
2023-07-08T12:15:36.307Z,40.01
2023-07-08T12:16:36.354Z,39.71
2023-07-08T12:17:36.398Z,39.45
2023-07-08T12:18:36.376Z,39.00
2023-07-08T12:19:36.376Z,38.42
2023-07-08T12:20:36.405Z,38.41
2023-07-08T12:21:36.421Z,38.32
2023-07-08T12:22:36.488Z,38.54
2023-07-08T12:23:36.496Z,38.36
2023-07-08T12:24:37.224Z,37.85
2023-07-08T12:25:36.689Z,38.05
2023-07-08T12:26:36.710Z,38.02
2023-07-08T12:27:36.763Z,38.02
2023-07-08T12:28:36.798Z,38.25
2023-07-08T12:29:36.838Z,38.29
2023-07-08T12:30:36.894Z,38.75
2023-07-08T12:31:37.019Z,39.22
2023-07-08T12:32:36.979Z,39.63
2023-07-08T12:33:37.032Z,39.94
2023-07-08T12:34:37.940Z,39.85
2023-07-08T12:35:37.078Z,39.56
2023-07-08T12:36:37.120Z,39.63
2023-07-08T12:37:37.166Z,39.64
2023-07-08T12:38:37.225Z,39.61
2023-07-08T12:39:37.250Z,39.83
2023-07-08T12:40:37.308Z,40.12
2023-07-08T12:41:39.490Z,40.39
2023-07-08T12:42:37.436Z,40.20
2023-07-08T12:43:37.476Z,40.08
2023-07-08T12:44:37.635Z,39.95
2023-07-08T12:45:37.563Z,39.79
2023-07-08T12:46:37.639Z,40.00
2023-07-08T12:47:37.745Z,40.48
2023-07-08T12:48:37.751Z,41.03
2023-07-08T12:49:37.778Z,41.00
2023-07-08T12:50:37.811Z,41.18
2023-07-08T12:51:37.848Z,40.99
2023-07-08T12:52:37.885Z,40.74
2023-07-08T12:53:37.912Z,40.64
2023-07-08T12:54:38.932Z,40.40
2023-07-08T12:55:37.984Z,40.62
2023-07-08T12:56:38.002Z,40.67
2023-07-08T12:57:38.054Z,40.01
2023-07-08T12:58:38.102Z,39.49